createdAt,value
2022-08-21T00:01:57.631Z,18.05
2022-08-21T00:04:31.184Z,17.91
2022-08-21T00:06:59.495Z,17.86
2022-08-21T00:09:32.167Z,17.81
2022-08-21T00:11:58.642Z,17.78
2022-08-21T00:14:39.190Z,17.71
2022-08-21T00:17:10.718Z,17.72
2022-08-21T00:19:43.176Z,17.64
2022-08-21T00:22:09.697Z,17.69
2022-08-21T00:24:36.531Z,17.67
2022-08-21T00:27:03.194Z,17.73
2022-08-21T00:29:29.660Z,17.67
2022-08-21T00:31:58.222Z,17.67
2022-08-21T00:34:32.201Z,17.53
2022-08-21T00:37:03.471Z,17.54
2022-08-21T00:39:38.253Z,17.48
2022-08-21T00:42:09.725Z,17.37
2022-08-21T00:44:43.215Z,17.34
2022-08-21T00:47:09.767Z,17.23
2022-08-21T00:49:43.199Z,17.25
2022-08-21T00:52:20.311Z,17.15
2022-08-21T00:54:55.205Z,17.10
2022-08-21T00:57:28.845Z,17.08
2022-08-21T01:00:02.170Z,17.02
2022-08-21T01:02:28.881Z,16.98
2022-08-21T01:04:58.294Z,16.89
2022-08-21T01:07:27.547Z,16.78
2022-08-21T01:09:58.794Z,16.75
2022-08-21T01:12:26.344Z,16.71
2022-08-21T01:15:02.247Z,16.62
2022-08-21T01:17:28.879Z,16.57
2022-08-21T01:20:06.213Z,16.61
2022-08-21T01:22:32.777Z,16.66
2022-08-21T01:24:59.210Z,16.62
2022-08-21T01:27:25.627Z,16.61
2022-08-21T01:30:00.790Z,16.59
2022-08-21T01:32:27.362Z,16.60
2022-08-21T01:34:54.690Z,16.59
2022-08-21T01:37:24.943Z,16.49
2022-08-21T01:39:58.305Z,16.47
2022-08-21T01:42:24.798Z,16.49
2022-08-21T01:44:51.290Z,16.39
2022-08-21T01:47:21.261Z,16.38
2022-08-21T01:49:50.309Z,16.46
2022-08-21T01:52:16.711Z,16.48
2022-08-21T01:54:43.644Z,16.47
2022-08-21T01:57:12.162Z,16.46
2022-08-21T01:59:38.648Z,16.39
2022-08-21T02:02:05.590Z,16.18
2022-08-21T02:04:33.619Z,16.10
2022-08-21T02:07:01.393Z,16.03
2022-08-21T02:09:28.639Z,16.13
2022-08-21T02:11:56.035Z,16.22
2022-08-21T02:14:30.290Z,16.18
2022-08-21T02:17:05.132Z,16.14
2022-08-21T02:19:40.109Z,16.04
2022-08-21T02:22:10.443Z,15.98
2022-08-21T02:24:38.475Z,15.94
2022-08-21T02:27:26.262Z,15.88
2022-08-21T02:30:00.513Z,15.89
2022-08-21T02:32:33.282Z,15.87
2022-08-21T02:35:01.830Z,15.77
2022-08-21T02:37:28.456Z,15.76
2022-08-21T02:39:54.917Z,15.77
2022-08-21T02:42:21.414Z,15.72
2022-08-21T02:44:54.349Z,15.65
2022-08-21T02:47:20.764Z,15.60
2022-08-21T02:49:47.199Z,15.56
2022-08-21T02:52:16.235Z,15.52
2022-08-21T02:54:42.993Z,15.52
2022-08-21T02:57:11.755Z,15.51
2022-08-21T02:59:44.287Z,15.49
2022-08-21T03:02:12.005Z,15.37
2022-08-21T03:04:46.849Z,15.36
2022-08-21T03:07:16.226Z,15.33
2022-08-21T03:09:55.754Z,15.28
2022-08-21T03:12:22.920Z,15.16
2022-08-21T03:15:05.317Z,15.14
2022-08-21T03:17:32.012Z,15.13
2022-08-21T03:20:07.307Z,15.12
2022-08-21T03:22:34.271Z,15.10
2022-08-21T03:25:08.308Z,15.04
2022-08-21T03:27:42.415Z,15.05
2022-08-21T03:30:10.681Z,14.97
2022-08-21T03:32:37.245Z,14.94
2022-08-21T03:35:09.045Z,14.93
2022-08-21T03:37:35.831Z,14.89
2022-08-21T03:40:05.819Z,14.88
2022-08-21T03:42:32.261Z,14.84
2022-08-21T03:45:01.295Z,14.80
2022-08-21T03:47:28.117Z,14.79
2022-08-21T03:49:55.135Z,14.74
2022-08-21T03:52:28.333Z,14.73
2022-08-21T03:54:57.045Z,14.68
2022-08-21T03:57:30.319Z,14.67
2022-08-21T03:59:56.686Z,14.59
2022-08-21T04:02:30.331Z,14.60
2022-08-21T04:04:56.871Z,14.60
2022-08-21T04:07:23.247Z,14.63
2022-08-21T04:09:49.683Z,14.62
2022-08-21T04:12:16.058Z,14.50
2022-08-21T04:14:45.695Z,14.49
2022-08-21T04:17:14.409Z,14.62
2022-08-21T04:19:42.958Z,14.57
2022-08-21T04:22:09.350Z,14.63
2022-08-21T04:24:36.526Z,14.55
2022-08-21T04:27:05.303Z,14.80
2022-08-21T04:29:31.801Z,14.61
2022-08-21T04:32:04.363Z,14.54
2022-08-21T04:34:30.855Z,14.51
2022-08-21T04:36:57.243Z,14.49
2022-08-21T04:39:25.208Z,14.37
2022-08-21T04:41:56.410Z,14.39
2022-08-21T04:44:31.377Z,14.33
2022-08-21T04:46:57.750Z,14.35
2022-08-21T04:49:24.422Z,14.36
2022-08-21T04:51:50.988Z,14.37
2022-08-21T04:54:23.175Z,14.39
2022-08-21T04:56:54.464Z,14.33
2022-08-21T04:59:28.265Z,14.40
2022-08-21T05:01:57.505Z,14.43
2022-08-21T05:04:27.676Z,14.47
2022-08-21T05:06:58.573Z,14.44
2022-08-21T05:09:25.633Z,14.44
2022-08-21T05:11:53.645Z,14.46
2022-08-21T05:14:27.377Z,14.50
2022-08-21T05:17:01.066Z,14.54
2022-08-21T05:19:27.572Z,14.59
2022-08-21T05:21:54.338Z,14.65
2022-08-21T05:24:20.906Z,14.67
2022-08-21T05:26:47.733Z,14.79
2022-08-21T05:29:16.586Z,14.87
2022-08-21T05:31:46.015Z,14.93
2022-08-21T05:34:17.020Z,15.10
2022-08-21T05:36:43.790Z,15.17
2022-08-21T05:39:10.332Z,15.27
2022-08-21T05:41:45.443Z,15.27
2022-08-21T05:44:11.926Z,15.38
2022-08-21T05:46:38.746Z,15.43
2022-08-21T05:49:05.247Z,15.53
2022-08-21T05:51:32.139Z,15.63
2022-08-21T05:54:01.194Z,15.71
2022-08-21T05:56:30.800Z,15.82
2022-08-21T05:58:57.317Z,15.94
2022-08-21T06:01:23.733Z,16.06
2022-08-21T06:03:50.210Z,16.25
2022-08-21T06:06:16.891Z,16.39
2022-08-21T06:08:43.692Z,16.52
2022-08-21T06:11:17.507Z,16.65
2022-08-21T06:13:46.202Z,16.75
2022-08-21T06:16:25.436Z,16.90
2022-08-21T06:18:51.899Z,17.05
2022-08-21T06:21:18.430Z,17.18
2022-08-21T06:23:45.407Z,17.32
2022-08-21T06:26:13.758Z,17.44
2022-08-21T06:28:41.082Z,17.59
2022-08-21T06:31:23.466Z,17.73
2022-08-21T06:33:50.268Z,17.91
2022-08-21T06:36:24.439Z,18.04
2022-08-21T06:38:53.409Z,18.27
2022-08-21T06:41:27.463Z,18.48
2022-08-21T06:43:55.720Z,18.63
2022-08-21T06:46:32.265Z,18.67
2022-08-21T06:49:15.640Z,18.83
2022-08-21T06:51:56.873Z,19.10
2022-08-21T06:54:25.957Z,19.25
2022-08-21T06:56:53.619Z,19.39
2022-08-21T06:59:29.542Z,19.53
2022-08-21T07:02:13.690Z,19.54
2022-08-21T07:04:46.454Z,19.83
2022-08-21T07:07:12.877Z,20.05
2022-08-21T07:09:40.490Z,20.27
2022-08-21T07:12:17.461Z,20.18
2022-08-21T07:14:44.074Z,20.54
2022-08-21T07:17:30.490Z,20.49
2022-08-21T07:19:58.276Z,20.54
2022-08-21T07:22:31.482Z,20.46
2022-08-21T07:24:58.249Z,20.83
2022-08-21T07:27:31.511Z,21.21
2022-08-21T07:29:58.515Z,21.28
2022-08-21T07:32:25.208Z,21.36
2022-08-21T07:34:51.798Z,21.60
2022-08-21T07:37:18.290Z,21.63
2022-08-21T07:39:49.798Z,21.66
2022-08-21T07:42:19.159Z,21.96
2022-08-21T07:44:45.547Z,21.80
2022-08-21T07:47:12.020Z,21.98
2022-08-21T07:49:38.754Z,22.20
2022-08-21T07:52:07.545Z,22.30
2022-08-21T07:54:34.510Z,22.05
2022-08-21T07:57:11.535Z,22.41
2022-08-21T07:59:38.050Z,22.48
2022-08-21T08:02:04.650Z,22.96
2022-08-21T08:04:31.154Z,22.99
2022-08-21T08:06:57.555Z,23.17
2022-08-21T08:09:23.955Z,23.17
2022-08-21T08:11:56.523Z,23.02
2022-08-21T08:14:31.459Z,23.33
2022-08-21T08:17:11.516Z,23.73
2022-08-21T08:19:40.978Z,23.70
2022-08-21T08:22:21.514Z,23.97
2022-08-21T08:24:49.326Z,23.94
2022-08-21T08:27:25.561Z,23.85
2022-08-21T08:29:54.452Z,23.98
2022-08-21T08:32:27.565Z,23.85
2022-08-21T08:34:57.554Z,24.01
2022-08-21T08:37:33.095Z,24.18
2022-08-21T08:40:05.366Z,24.13
2022-08-21T08:42:42.550Z,24.26
2022-08-21T08:45:17.328Z,24.29
2022-08-21T08:47:55.567Z,24.36
2022-08-21T08:50:48.601Z,24.21
2022-08-21T08:53:29.555Z,24.27
2022-08-21T08:56:00.643Z,24.42
2022-08-21T08:58:47.577Z,24.67
2022-08-21T09:01:19.746Z,24.84
2022-08-21T09:03:51.056Z,25.02
2022-08-21T09:06:37.765Z,24.78
2022-08-21T09:09:19.560Z,25.08
2022-08-21T09:11:51.986Z,25.39
2022-08-21T09:15:01.047Z,25.61
2022-08-21T09:18:16.601Z,25.82
2022-08-21T09:21:07.571Z,26.00
2022-08-21T09:23:56.906Z,26.00
2022-08-21T09:26:31.594Z,25.97
2022-08-21T09:29:01.545Z,25.69
2022-08-21T09:31:40.135Z,26.00
2022-08-21T09:34:10.855Z,25.78
2022-08-21T09:36:42.341Z,25.88
2022-08-21T09:39:10.256Z,26.05
2022-08-21T09:41:40.806Z,25.95
2022-08-21T09:44:09.863Z,26.09
2022-08-21T09:46:37.321Z,25.78
2022-08-21T09:49:06.864Z,26.03
2022-08-21T09:51:55.656Z,26.18
2022-08-21T09:54:29.973Z,26.09
2022-08-21T09:57:19.248Z,26.02
2022-08-21T09:59:47.857Z,26.14
2022-08-21T10:02:42.591Z,26.21
2022-08-21T10:05:25.413Z,26.09
2022-08-21T10:07:59.610Z,26.23
2022-08-21T10:10:37.520Z,26.38
2022-08-21T10:13:10.520Z,26.26
2022-08-21T10:16:06.780Z,26.14
2022-08-21T10:18:54.366Z,26.16
2022-08-21T10:21:38.342Z,26.44
2022-08-21T10:24:41.253Z,26.34
2022-08-21T10:27:34.262Z,26.51
2022-08-21T10:30:21.736Z,26.54
2022-08-21T10:33:06.374Z,26.54
2022-08-21T10:35:58.630Z,26.21
2022-08-21T10:39:17.852Z,26.68
2022-08-21T10:42:27.451Z,26.97
2022-08-21T10:45:20.654Z,27.10
2022-08-21T10:47:58.459Z,27.27
2022-08-21T10:50:36.775Z,27.49
2022-08-21T10:53:31.007Z,27.21
2022-08-21T10:56:06.499Z,27.12
2022-08-21T10:58:41.917Z,26.94
2022-08-21T11:01:17.263Z,27.02
2022-08-21T11:03:47.729Z,26.99
2022-08-21T11:06:18.837Z,26.96
2022-08-21T11:08:53.320Z,27.05
2022-08-21T11:11:29.400Z,27.14
2022-08-21T11:14:49.798Z,27.25
2022-08-21T11:17:44.526Z,27.20
2022-08-21T11:20:35.670Z,27.29
2022-08-21T11:23:13.268Z,27.18
2022-08-21T11:25:45.302Z,27.30
2022-08-21T11:28:27.657Z,27.23
2022-08-21T11:31:06.320Z,27.18
2022-08-21T11:33:59.682Z,27.12
2022-08-21T11:36:26.159Z,27.14
2022-08-21T11:39:12.944Z,27.34
2022-08-21T11:41:48.775Z,27.48
2022-08-21T11:44:35.428Z,27.66
2022-08-21T11:47:13.808Z,27.82
2022-08-21T11:50:34.176Z,27.57
2022-08-21T11:53:58.769Z,27.39
2022-08-21T11:56:33.114Z,26.89
2022-08-21T11:59:12.715Z,27.03
2022-08-21T12:01:45.553Z,27.20
2022-08-21T12:04:29.586Z,27.34
2022-08-21T12:06:57.211Z,27.63
2022-08-21T12:09:37.510Z,27.60
2022-08-21T12:12:04.048Z,27.53
2022-08-21T12:14:47.569Z,27.59
2022-08-21T12:17:48.719Z,27.77
2022-08-21T12:20:23.362Z,27.90
2022-08-21T12:23:04.265Z,27.99
2022-08-21T12:25:43.693Z,27.93
2022-08-21T12:28:14.299Z,28.03
2022-08-21T12:30:44.439Z,27.90
2022-08-21T12:33:19.939Z,27.73
2022-08-21T12:35:50.248Z,27.79
2022-08-21T12:38:21.437Z,27.69
2022-08-21T12:40:56.795Z,27.11
2022-08-21T12:43:52.987Z,26.85
2022-08-21T12:46:31.951Z,27.10
2022-08-21T12:49:20.775Z,27.28
2022-08-21T12:52:25.586Z,27.36
2022-08-21T12:54:52.487Z,27.41
2022-08-21T12:57:28.657Z,27.43
2022-08-21T13:00:02.251Z,27.58
2022-08-21T13:02:46.439Z,27.85
2022-08-21T13:05:24.646Z,27.71
2022-08-21T13:07:51.463Z,27.72
2022-08-21T13:10:23.044Z,27.75
2022-08-21T13:12:53.079Z,28.01
2022-08-21T13:15:33.064Z,28.12
2022-08-21T13:18:07.883Z,28.14
2022-08-21T13:20:39.353Z,28.34
2022-08-21T13:23:25.907Z,28.12
2022-08-21T13:25:53.080Z,28.40
2022-08-21T13:28:19.664Z,28.51
2022-08-21T13:30:55.784Z,28.51
2022-08-21T13:33:37.251Z,28.64
2022-08-21T13:36:16.535Z,28.56
2022-08-21T13:38:46.261Z,28.69
2022-08-21T13:41:33.135Z,28.60
2022-08-21T13:44:21.226Z,28.61
2022-08-21T13:46:50.353Z,28.44
2022-08-21T13:49:20.049Z,28.18
2022-08-21T13:51:47.647Z,28.00
2022-08-21T13:54:34.822Z,28.03
2022-08-21T13:57:01.439Z,28.04
2022-08-21T13:59:38.829Z,27.95
2022-08-21T14:02:25.165Z,28.14
2022-08-21T14:04:59.919Z,27.93
2022-08-21T14:07:41.289Z,27.90
2022-08-21T14:10:21.827Z,28.02
2022-08-21T14:12:53.373Z,28.01
2022-08-21T14:15:38.828Z,28.04
2022-08-21T14:18:17.583Z,27.91
2022-08-21T14:20:50.856Z,27.89
2022-08-21T14:23:28.205Z,27.83
2022-08-21T14:26:00.865Z,27.76
2022-08-21T14:28:29.725Z,27.75
2022-08-21T14:30:57.650Z,27.70
2022-08-21T14:33:33.840Z,27.67
2022-08-21T14:36:02.768Z,27.70
2022-08-21T14:38:39.900Z,27.75
2022-08-21T14:41:19.582Z,27.69
2022-08-21T14:43:59.775Z,27.56
2022-08-21T14:46:35.251Z,27.54
2022-08-21T14:49:10.872Z,27.54
2022-08-21T14:51:54.345Z,27.58
2022-08-21T14:54:29.594Z,27.62
2022-08-21T14:57:00.866Z,27.54
2022-08-21T14:59:30.440Z,27.49
2022-08-21T15:01:57.331Z,27.36
2022-08-21T15:04:23.821Z,27.33
2022-08-21T15:06:50.657Z,27.29
2022-08-21T15:09:17.209Z,27.21
2022-08-21T15:11:44.131Z,27.12
2022-08-21T15:14:18.905Z,27.09
2022-08-21T15:17:08.903Z,26.99
2022-08-21T15:19:35.573Z,26.95
2022-08-21T15:22:04.503Z,26.97
2022-08-21T15:24:31.737Z,26.92
2022-08-21T15:27:01.154Z,26.88
2022-08-21T15:29:33.317Z,26.87
2022-08-21T15:32:10.908Z,26.82
2022-08-21T15:34:37.988Z,26.82
2022-08-21T15:37:06.395Z,26.75
2022-08-21T15:39:37.400Z,26.79
2022-08-21T15:42:12.907Z,26.78
2022-08-21T15:44:43.247Z,26.71
2022-08-21T15:47:20.896Z,26.74
2022-08-21T15:49:47.675Z,26.68
2022-08-21T15:52:23.918Z,26.73
2022-08-21T15:54:51.092Z,26.68
2022-08-21T15:57:21.712Z,26.72
2022-08-21T15:59:54.346Z,26.68
2022-08-21T16:02:42.094Z,26.69
2022-08-21T16:05:11.218Z,26.62
2022-08-21T16:07:40.685Z,26.52
2022-08-21T16:10:07.406Z,26.51
2022-08-21T16:12:39.020Z,26.45
2022-08-21T16:15:10.952Z,26.50
2022-08-21T16:17:59.580Z,26.35
2022-08-21T16:20:29.953Z,26.34
2022-08-21T16:22:58.458Z,26.33
2022-08-21T16:25:25.389Z,26.32
2022-08-21T16:27:58.982Z,26.22
2022-08-21T16:30:32.463Z,26.07
2022-08-21T16:33:02.370Z,26.02
2022-08-21T16:35:29.018Z,25.98
2022-08-21T16:37:57.987Z,26.18
2022-08-21T16:40:27.067Z,26.10
2022-08-21T16:42:53.603Z,26.13
2022-08-21T16:45:23.694Z,26.20
2022-08-21T16:47:52.935Z,26.13
2022-08-21T16:50:24.439Z,26.17
2022-08-21T16:52:51.774Z,26.24
2022-08-21T16:55:18.306Z,26.17
2022-08-21T16:57:44.899Z,25.98
2022-08-21T17:00:15.611Z,25.80
2022-08-21T17:02:53.620Z,25.85
2022-08-21T17:05:20.367Z,25.85
2022-08-21T17:07:46.887Z,25.95
2022-08-21T17:10:16.968Z,25.93
2022-08-21T17:12:47.040Z,25.94
2022-08-21T17:15:23.960Z,25.95
2022-08-21T17:17:51.164Z,25.95
2022-08-21T17:20:18.672Z,25.88
2022-08-21T17:22:45.191Z,25.95
2022-08-21T17:25:16.789Z,25.98
2022-08-21T17:27:46.804Z,26.06
2022-08-21T17:30:17.683Z,26.06
2022-08-21T17:32:46.049Z,26.05
2022-08-21T17:35:13.985Z,26.02
2022-08-21T17:37:40.660Z,25.96
2022-08-21T17:40:10.464Z,25.93
2022-08-21T17:42:37.022Z,25.92
2022-08-21T17:45:04.299Z,25.88
2022-08-21T17:47:33.039Z,25.86
2022-08-21T17:49:59.518Z,25.70
2022-08-21T17:52:25.978Z,25.72
2022-08-21T17:54:52.384Z,25.57
2022-08-21T17:57:23.944Z,25.66
2022-08-21T17:59:52.372Z,25.67
2022-08-21T18:02:25.025Z,25.64
2022-08-21T18:04:51.652Z,25.59
2022-08-21T18:07:25.285Z,25.33
2022-08-21T18:10:00.551Z,25.35
2022-08-21T18:12:26.966Z,25.27
2022-08-21T18:14:53.388Z,25.24
2022-08-21T18:17:22.382Z,25.21
2022-08-21T18:19:49.559Z,25.15
2022-08-21T18:22:16.660Z,25.00
2022-08-21T18:24:43.771Z,24.80
2022-08-21T18:27:11.552Z,24.86
2022-08-21T18:29:46.609Z,24.77
2022-08-21T18:32:30.445Z,24.63
2022-08-21T18:35:02.267Z,24.48
2022-08-21T18:37:29.216Z,24.37
2022-08-21T18:39:56.242Z,24.27
2022-08-21T18:42:28.390Z,24.15
2022-08-21T18:45:01.474Z,23.99
2022-08-21T18:47:38.055Z,23.91
2022-08-21T18:50:10.707Z,23.83
2022-08-21T18:52:38.928Z,23.76
2022-08-21T18:55:13.383Z,23.68
2022-08-21T18:57:46.516Z,23.53
2022-08-21T19:00:18.421Z,23.71
2022-08-21T19:02:45.116Z,23.72
2022-08-21T19:05:18.167Z,23.43
2022-08-21T19:07:44.990Z,23.36
2022-08-21T19:10:27.536Z,23.18
2022-08-21T19:12:57.158Z,23.00
2022-08-21T19:15:27.028Z,22.79
2022-08-21T19:17:58.354Z,22.67
2022-08-21T19:20:28.889Z,22.62
2022-08-21T19:22:58.368Z,22.52
2022-08-21T19:25:33.301Z,22.43
2022-08-21T19:28:10.964Z,22.32
2022-08-21T19:30:45.708Z,22.24
2022-08-21T19:33:25.788Z,22.16
2022-08-21T19:35:53.120Z,22.06
2022-08-21T19:38:20.294Z,22.05
2022-08-21T19:40:47.383Z,21.93
2022-08-21T19:43:14.104Z,21.87
2022-08-21T19:45:42.226Z,21.79
2022-08-21T19:48:09.425Z,21.76
2022-08-21T19:50:38.370Z,21.72
2022-08-21T19:53:05.834Z,21.66
2022-08-21T19:55:43.775Z,21.62
2022-08-21T19:58:18.990Z,21.62
2022-08-21T20:00:51.826Z,21.52
2022-08-21T20:03:21.314Z,21.42
2022-08-21T20:05:47.951Z,21.42
2022-08-21T20:11:04.300Z,21.29
2022-08-21T20:13:33.836Z,21.24
2022-08-21T20:16:12.251Z,21.23
2022-08-21T20:18:41.804Z,21.16
2022-08-21T20:21:10.742Z,21.12
2022-08-21T20:23:37.119Z,21.07
2022-08-21T20:26:15.426Z,21.01
2022-08-21T20:28:41.821Z,20.91
2022-08-21T20:31:09.544Z,20.83
2022-08-21T20:33:37.366Z,20.78
2022-08-21T20:36:07.069Z,20.71
2022-08-21T20:38:35.849Z,20.68
2022-08-21T20:41:06.485Z,20.56
2022-08-21T20:43:48.280Z,20.54
2022-08-21T20:46:22.842Z,20.51
2022-08-21T20:48:54.766Z,20.44
2022-08-21T20:51:37.278Z,20.40
2022-08-21T20:54:25.607Z,20.37
2022-08-21T20:57:14.723Z,20.34
2022-08-21T21:00:01.541Z,20.32
2022-08-21T21:02:53.888Z,20.27
2022-08-21T21:05:31.675Z,20.22
2022-08-21T21:08:04.551Z,20.16
2022-08-21T21:10:38.651Z,20.11
2022-08-21T21:13:16.575Z,20.06
2022-08-21T21:15:44.809Z,20.04
2022-08-21T21:18:22.516Z,19.99
2022-08-21T21:21:06.863Z,19.95
2022-08-21T21:24:02.607Z,19.89
2022-08-21T21:26:48.880Z,19.84
2022-08-21T21:29:30.007Z,19.81
2022-08-21T21:31:56.847Z,19.78
2022-08-21T21:34:26.690Z,19.73
2022-08-21T21:37:05.588Z,19.71
2022-08-21T21:39:50.157Z,19.64
2022-08-21T21:42:35.663Z,19.62
2022-08-21T21:45:23.444Z,19.61
2022-08-21T21:48:16.006Z,19.60
2022-08-21T21:51:21.172Z,19.58
2022-08-21T21:53:54.522Z,19.48
2022-08-21T21:56:27.644Z,19.47
2022-08-21T22:02:09.335Z,19.41
2022-08-21T22:04:51.749Z,19.38
2022-08-21T22:07:33.144Z,19.34
2022-08-21T22:10:06.876Z,19.33
2022-08-21T22:13:09.592Z,19.27
2022-08-21T22:15:37.632Z,19.24
2022-08-21T22:18:14.399Z,19.17
2022-08-21T22:20:52.955Z,19.04
2022-08-21T22:23:25.611Z,18.87
2022-08-21T22:25:54.196Z,18.85
2022-08-21T22:28:27.641Z,18.73
2022-08-21T22:31:21.169Z,18.71
2022-08-21T22:34:01.565Z,18.49
2022-08-21T22:36:33.119Z,18.37
2022-08-21T22:38:59.841Z,18.35
2022-08-21T22:41:30.961Z,18.32
2022-08-21T22:43:57.517Z,18.31
2022-08-21T22:46:50.495Z,18.31
2022-08-21T22:49:25.420Z,18.24
2022-08-21T22:51:57.779Z,18.19
2022-08-21T22:54:35.193Z,18.22
2022-08-21T22:57:06.664Z,18.21
2022-08-21T22:59:41.264Z,18.21
2022-08-21T23:02:30.526Z,18.16
2022-08-21T23:04:59.695Z,18.15
2022-08-21T23:07:36.434Z,18.07
2022-08-21T23:10:19.401Z,18.09
2022-08-21T23:12:52.181Z,18.06
2022-08-21T23:15:20.888Z,18.02
2022-08-21T23:18:14.115Z,18.02
2022-08-21T23:20:59.802Z,18.04
2022-08-21T23:23:28.864Z,17.96
2022-08-21T23:26:17.817Z,17.98
2022-08-21T23:29:04.901Z,18.04
2022-08-21T23:31:39.871Z,18.12
2022-08-21T23:34:26.898Z,18.11
2022-08-21T23:37:48.700Z,18.12
2022-08-21T23:40:34.968Z,18.11
2022-08-21T23:43:20.373Z,18.15
2022-08-21T23:46:33.934Z,18.29
2022-08-21T23:49:26.682Z,18.47
2022-08-21T23:52:05.322Z,18.54
2022-08-21T23:55:09.507Z,18.65
2022-08-21T23:58:03.942Z,18.74
